Time,TemperatureF,DewpointF,PressureIn,WindDirection,WindDirectionDegrees,WindSpeedMPH,WindSpeedGustMPH,Humidity,HourlyPrecipIn,Conditions,Clouds,dailyrainin,SoftwareType,DateUTC
2013-05-09 00:00:00,54.3,52.3,29.95,NNE,21,3.0,3.0,93,0.00,,,0.01,Wunderground v.1.15,2013-05-09 05:00:00,
2013-05-09 00:10:00,54.2,52.2,29.95,NNE,21,2.0,30.0,93,0.00,,,0.00,Wunderground v.1.15,2013-05-09 05:10:00,
2013-05-09 00:19:00,53.7,51.7,29.94,NNE,21,3.0,30.0,93,0.00,,,0.00,Wunderground v.1.15,2013-05-09 05:19:00,
2013-05-09 00:24:00,53.4,51.7,29.93,NNE,21,3.0,30.0,94,0.00,,,0.00,Wunderground v.1.15,2013-05-09 05:24:00,
2013-05-09 00:29:00,53.2,51.5,29.93,North,360,4.0,30.0,94,0.00,,,0.00,Wunderground v.1.15,2013-05-09 05:29:00,
2013-05-09 00:34:00,53.1,51.4,29.94,North,360,4.0,30.0,94,0.00,,,0.00,Wunderground v.1.15,2013-05-09 05:34:00,
2013-05-09 00:40:00,53.1,51.4,29.94,North,360,4.0,4.0,94,0.00,,,0.00,Wunderground v.1.15,2013-05-09 05:40:00,
2013-05-09 00:44:00,53.0,51.3,29.94,North,360,4.0,5.0,94,0.00,,,0.00,Wunderground v.1.15,2013-05-09 05:44:00,
2013-05-09 00:49:00,53.0,51.3,29.94,North,360,3.0,30.0,94,0.00,,,0.00,Wunderground v.1.15,2013-05-09 05:49:00,
2013-05-09 00:54:00,53.0,51.3,29.93,North,360,3.0,30.0,94,0.00,,,0.00,Wunderground v.1.15,2013-05-09 05:54:00,
2013-05-09 01:00:00,53.0,51.6,29.93,North,360,3.0,3.0,95,0.00,,,0.00,Wunderground v.1.15,2013-05-09 06:00:00,
2013-05-09 01:09:00,53.9,52.5,29.93,North,360,3.0,3.0,95,0.00,,,0.00,Wunderground v.1.15,2013-05-09 06:09:00,
2013-05-09 01:15:00,53.8,52.4,29.93,North,360,3.0,30.0,95,0.00,,,0.00,Wunderground v.1.15,2013-05-09 06:15:00,
2013-05-09 01:20:00,53.7,52.3,29.93,North,360,3.0,30.0,95,0.00,,,0.00,Wunderground v.1.15,2013-05-09 06:20:00,
2013-05-09 01:30:00,53.3,51.9,29.93,North,360,2.0,30.0,95,0.00,,,0.00,Wunderground v.1.15,2013-05-09 06:30:00,
2013-05-09 01:35:00,53.2,51.8,29.93,North,360,2.0,30.0,95,0.00,,,0.00,Wunderground v.1.15,2013-05-09 06:35:00,
2013-05-09 01:44:00,53.0,51.6,29.92,North,360,3.0,30.0,95,0.00,,,0.00,Wunderground v.1.15,2013-05-09 06:44:00,
2013-05-09 01:50:00,53.1,51.7,29.93,North,360,3.0,30.0,95,0.00,,,0.00,Wunderground v.1.15,2013-05-09 06:50:00,
2013-05-09 01:59:00,53.0,51.6,29.92,North,360,3.0,30.0,95,0.00,,,0.00,Wunderground v.1.15,2013-05-09 06:59:00,
2013-05-09 02:05:00,52.8,51.4,29.92,North,360,3.0,30.0,95,0.00,,,0.00,Wunderground v.1.15,2013-05-09 07:05:00,
2013-05-09 02:14:00,52.2,50.8,29.92,North,360,4.0,30.0,95,0.00,,,0.00,Wunderground v.1.15,2013-05-09 07:14:00,
2013-05-09 02:19:00,52.2,50.8,29.91,North,360,4.0,30.0,95,0.00,,,0.00,Wunderground v.1.15,2013-05-09 07:19:00,
2013-05-09 02:25:00,51.8,50.4,29.91,North,360,4.0,30.0,95,0.00,,,0.00,Wunderground v.1.15,2013-05-09 07:25:00,
2013-05-09 02:34:00,51.9,50.5,29.91,North,360,3.0,30.0,95,0.00,,,0.00,Wunderground v.1.15,2013-05-09 07:34:00,
2013-05-09 02:40:00,51.9,50.5,29.92,North,360,4.0,30.0,95,0.00,,,0.00,Wunderground v.1.15,2013-05-09 07:40:00,
2013-05-09 02:49:00,51.8,50.4,29.92,North,360,3.0,3.0,95,0.00,,,0.00,Wunderground v.1.15,2013-05-09 07:49:00,
2013-05-09 02:54:00,52.0,50.9,29.91,North,360,4.0,4.0,96,0.00,,,0.00,Wunderground v.1.15,2013-05-09 07:54:00,
2013-05-09 02:59:00,51.9,50.8,29.91,North,360,4.0,4.0,96,0.00,,,0.00,Wunderground v.1.15,2013-05-09 07:59:00,
2013-05-09 03:05:00,51.7,50.6,29.91,North,360,4.0,30.0,96,0.00,,,0.00,Wunderground v.1.15,2013-05-09 08:05:00,
2013-05-09 03:14:00,51.4,50.3,29.90,North,360,4.0,30.0,96,0.00,,,0.00,Wunderground v.1.15,2013-05-09 08:14:00,
2013-05-09 03:19:00,51.5,50.4,29.90,North,360,5.0,5.0,96,0.00,,,0.00,Wunderground v.1.15,2013-05-09 08:19:00,
2013-05-09 03:25:00,51.6,50.5,29.90,North,360,5.0,30.0,96,0.00,,,0.00,Wunderground v.1.15,2013-05-09 08:25:00,
2013-05-09 03:30:00,51.5,50.4,29.89,North,360,5.0,30.0,96,0.00,,,0.00,Wunderground v.1.15,2013-05-09 08:30:00,
2013-05-09 03:40:00,51.3,50.2,29.89,North,360,4.0,4.0,96,0.00,,,0.00,Wunderground v.1.15,2013-05-09 08:40:00,
2013-05-09 03:50:00,51.1,50.0,29.89,North,360,3.0,30.0,96,0.00,,,0.00,Wunderground v.1.15,2013-05-09 08:50:00,
2013-05-09 03:55:00,51.0,49.9,29.89,NNW,335,4.0,30.0,96,0.00,,,0.00,Wunderground v.1.15,2013-05-09 08:55:00,
2013-05-09 04:04:00,50.9,49.8,29.90,NNW,335,5.0,30.0,96,0.00,,,0.00,Wunderground v.1.15,2013-05-09 09:04:00,
2013-05-09 04:09:00,51.0,49.9,29.90,NW,325,5.0,30.0,96,0.00,,,0.00,Wunderground v.1.15,2013-05-09 09:09:00,
2013-05-09 04:15:00,51.1,50.0,29.90,NW,323,6.0,30.0,96,0.00,,,0.00,Wunderground v.1.15,2013-05-09 09:15:00,
2013-05-09 04:24:00,51.2,50.1,29.91,NW,321,6.0,30.0,96,0.00,,,0.00,Wunderground v.1.15,2013-05-09 09:24:00,
2013-05-09 04:30:00,51.2,50.1,29.91,NW,321,6.0,6.0,96,0.00,,,0.00,Wunderground v.1.15,2013-05-09 09:30:00,
2013-05-09 04:35:00,51.2,50.1,29.91,NW,321,4.0,30.0,96,0.00,,,0.00,Wunderground v.1.15,2013-05-09 09:35:00,
2013-05-09 04:44:00,51.0,49.9,29.92,NW,321,2.0,30.0,96,0.00,,,0.00,Wunderground v.1.15,2013-05-09 09:44:00,
2013-05-09 04:50:00,50.9,49.8,29.92,NW,321,2.0,30.0,96,0.00,,,0.00,Wunderground v.1.15,2013-05-09 09:50:00,
2013-05-09 04:55:00,50.9,49.8,29.92,NW,321,3.0,30.0,96,0.00,,,0.00,Wunderground v.1.15,2013-05-09 09:55:00,
2013-05-09 05:04:00,50.5,49.4,29.92,NW,321,3.0,30.0,96,0.00,,,0.00,Wunderground v.1.15,2013-05-09 10:04:00,
2013-05-09 05:09:00,50.4,49.3,29.92,NW,321,4.0,4.0,96,0.00,,,0.00,Wunderground v.1.15,2013-05-09 10:09:00,
2013-05-09 05:15:00,50.3,49.2,29.92,NW,321,4.0,30.0,96,0.00,,,0.00,Wunderground v.1.15,2013-05-09 10:15:00,
2013-05-09 05:20:00,50.2,49.1,29.93,NW,321,3.0,30.0,96,0.00,,,0.00,Wunderground v.1.15,2013-05-09 10:20:00,
2013-05-09 05:25:00,50.1,49.0,29.93,NW,321,3.0,30.0,96,0.00,,,0.00,Wunderground v.1.15,2013-05-09 10:25:00,
2013-05-09 05:34:00,49.9,48.8,29.92,NW,321,5.0,30.0,96,0.00,,,0.00,Wunderground v.1.15,2013-05-09 10:34:00,
2013-05-09 05:40:00,49.8,48.7,29.92,NW,321,5.0,30.0,96,0.00,,,0.00,Wunderground v.1.15,2013-05-09 10:40:00,
2013-05-09 05:45:00,50.0,49.2,29.92,NW,321,4.0,30.0,97,0.00,,,0.00,Wunderground v.1.15,2013-05-09 10:45:00,
2013-05-09 05:54:00,50.1,49.3,29.92,NW,321,5.0,30.0,97,0.00,,,0.00,Wunderground v.1.15,2013-05-09 10:54:00,
2013-05-09 06:00:00,50.0,48.9,29.92,NW,320,7.0,30.0,96,0.00,,,0.00,Wunderground v.1.15,2013-05-09 11:00:00,
2013-05-09 06:05:00,49.9,48.8,29.92,NW,325,7.0,30.0,96,0.00,,,0.00,Wunderground v.1.15,2013-05-09 11:05:00,
2013-05-09 06:14:00,49.9,48.8,29.93,NNW,333,6.0,30.0,96,0.00,,,0.00,Wunderground v.1.15,2013-05-09 11:14:00,
2013-05-09 06:20:00,50.1,49.3,29.93,NNW,337,6.0,30.0,97,0.00,,,0.00,Wunderground v.1.15,2013-05-09 11:20:00,
2013-05-09 06:29:00,50.6,49.8,29.93,NNW,332,6.0,30.0,97,0.00,,,0.00,Wunderground v.1.15,2013-05-09 11:29:00,
2013-05-09 06:35:00,50.8,50.0,29.93,NNW,336,6.0,30.0,97,0.00,,,0.00,Wunderground v.1.15,2013-05-09 11:35:00,
2013-05-09 06:40:00,51.0,50.2,29.93,NNW,330,7.0,30.0,97,0.00,,,0.00,Wunderground v.1.15,2013-05-09 11:40:00,
2013-05-09 06:49:00,51.3,50.5,29.93,NNW,335,7.0,7.0,97,0.00,,,0.00,Wunderground v.1.15,2013-05-09 11:49:00,
2013-05-09 06:55:00,51.4,50.6,29.93,NW,319,7.0,11.0,97,0.00,,,0.00,Wunderground v.1.15,2013-05-09 11:55:00,
2013-05-09 07:04:00,51.7,50.9,29.93,NW,323,9.0,30.0,97,0.00,,,0.00,Wunderground v.1.15,2013-05-09 12:04:00,
2013-05-09 07:09:00,51.9,51.1,29.93,NW,324,9.0,30.0,97,0.00,,,0.00,Wunderground v.1.15,2013-05-09 12:09:00,
2013-05-09 07:14:00,52.0,51.2,29.94,NNW,333,9.0,30.0,97,0.00,,,0.00,Wunderground v.1.15,2013-05-09 12:14:00,
2013-05-09 07:20:00,52.1,51.0,29.94,NW,313,9.0,30.0,96,0.00,,,0.00,Wunderground v.1.15,2013-05-09 12:20:00,
2013-05-09 07:29:00,52.3,51.2,29.95,NW,319,9.0,30.0,96,0.00,,,0.00,Wunderground v.1.15,2013-05-09 12:29:00,
2013-05-09 07:34:00,52.4,51.3,29.94,NW,311,11.0,30.0,96,0.00,,,0.00,Wunderground v.1.15,2013-05-09 12:34:00,
2013-05-09 07:39:00,52.4,51.3,29.95,NW,315,11.0,11.0,96,0.00,,,0.00,Wunderground v.1.15,2013-05-09 12:39:00,
2013-05-09 07:44:00,52.4,51.3,29.94,NNW,327,11.0,30.0,96,0.00,,,0.00,Wunderground v.1.15,2013-05-09 12:44:00,
2013-05-09 07:50:00,52.5,51.4,29.95,NNW,329,11.0,30.0,96,0.00,,,0.00,Wunderground v.1.15,2013-05-09 12:50:00,
2013-05-09 07:59:00,52.7,51.6,29.95,NW,304,11.0,30.0,96,0.00,,,0.00,Wunderground v.1.15,2013-05-09 12:59:00,
2013-05-09 08:04:00,52.8,51.7,29.95,NNW,333,10.0,30.0,96,0.00,,,0.00,Wunderground v.1.15,2013-05-09 13:04:00,
2013-05-09 08:10:00,53.1,52.0,29.95,North,355,8.0,8.0,96,0.00,,,0.00,Wunderground v.1.15,2013-05-09 13:10:00,
2013-05-09 08:15:00,53.3,52.2,29.95,NNE,12,6.0,9.0,96,0.00,,,0.00,Wunderground v.1.15,2013-05-09 13:15:00,
2013-05-09 08:24:00,53.6,52.5,29.96,North,355,5.0,30.0,96,0.00,,,0.00,Wunderground v.1.15,2013-05-09 13:24:00,
2013-05-09 08:29:00,53.7,52.6,29.96,North,5,5.0,5.0,96,0.00,,,0.00,Wunderground v.1.15,2013-05-09 13:29:00,
2013-05-09 08:35:00,53.9,52.8,29.96,NNE,18,6.0,6.0,96,0.00,,,0.00,Wunderground v.1.15,2013-05-09 13:35:00,
2013-05-09 08:40:00,54.1,53.0,29.97,North,11,6.0,6.0,96,0.00,,,0.00,Wunderground v.1.15,2013-05-09 13:40:00,
2013-05-09 08:49:00,54.3,53.2,29.97,North,360,6.0,6.0,96,0.00,,,0.00,Wunderground v.1.15,2013-05-09 13:49:00,
2013-05-09 08:55:00,54.3,52.9,29.97,North,351,6.0,30.0,95,0.00,,,0.00,Wunderground v.1.15,2013-05-09 13:55:00,
2013-05-09 09:00:00,54.5,53.1,29.97,North,360,6.0,6.0,95,0.00,,,0.00,Wunderground v.1.15,2013-05-09 14:00:00,
2013-05-09 09:09:00,54.8,53.4,29.97,North,355,7.0,30.0,95,0.00,,,0.00,Wunderground v.1.15,2013-05-09 14:09:00,
2013-05-09 09:15:00,54.9,53.5,29.97,NNW,347,7.0,30.0,95,0.00,,,0.00,Wunderground v.1.15,2013-05-09 14:15:00,
2013-05-09 09:20:00,55.1,53.7,29.97,NNE,14,7.0,7.0,95,0.00,,,0.00,Wunderground v.1.15,2013-05-09 14:20:00,
2013-05-09 09:29:00,55.3,53.6,29.98,NNE,15,8.0,30.0,94,0.00,,,0.00,Wunderground v.1.15,2013-05-09 14:29:00,
2013-05-09 09:35:00,55.3,53.6,29.98,NE,43,9.0,30.0,94,0.00,,,0.00,Wunderground v.1.15,2013-05-09 14:35:00,
2013-05-09 09:44:00,55.6,53.6,29.98,NNE,24,11.0,30.0,93,0.00,,,0.00,Wunderground v.1.15,2013-05-09 14:44:00,
2013-05-09 09:49:00,55.8,53.8,29.98,NNE,30,10.0,10.0,93,0.00,,,0.00,Wunderground v.1.15,2013-05-09 14:49:00,
2013-05-09 09:55:00,55.8,53.8,29.99,NNE,19,9.0,30.0,93,0.00,,,0.00,Wunderground v.1.15,2013-05-09 14:55:00,
2013-05-09 10:04:00,56.0,53.7,29.99,NNE,19,9.0,30.0,92,0.00,,,0.00,Wunderground v.1.15,2013-05-09 15:04:00,
2013-05-09 10:09:00,56.1,53.8,29.99,NNE,12,7.0,7.0,92,0.00,,,0.00,Wunderground v.1.15,2013-05-09 15:09:00,
2013-05-09 10:14:00,56.2,53.9,29.99,North,360,6.0,30.0,92,0.00,,,0.00,Wunderground v.1.15,2013-05-09 15:14:00,
2013-05-09 10:20:00,56.2,54.2,29.99,NNE,20,6.0,30.0,93,0.00,,,0.00,Wunderground v.1.15,2013-05-09 15:20:00,
2013-05-09 10:25:00,56.6,54.3,29.99,NNE,24,6.0,30.0,92,0.00,,,0.00,Wunderground v.1.15,2013-05-09 15:25:00,
2013-05-09 10:34:00,57.4,54.5,30.00,NNE,19,9.0,30.0,90,0.00,,,0.00,Wunderground v.1.15,2013-05-09 15:34:00,
2013-05-09 10:40:00,57.5,54.3,30.00,NNE,19,7.0,7.0,89,0.00,,,0.00,Wunderground v.1.15,2013-05-09 15:40:00,
2013-05-09 10:45:00,57.7,54.5,30.00,North,11,7.0,30.0,89,0.00,,,0.00,Wunderground v.1.15,2013-05-09 15:45:00,
2013-05-09 10:50:00,58.0,54.8,30.00,North,5,7.0,7.0,89,0.00,,,0.00,Wunderground v.1.15,2013-05-09 15:50:00,
2013-05-09 10:59:00,58.2,54.3,30.00,North,350,8.0,30.0,87,0.00,,,0.00,Wunderground v.1.15,2013-05-09 15:59:00,
2013-05-09 11:05:00,58.4,54.5,30.00,North,5,9.0,30.0,87,0.00,,,0.00,Wunderground v.1.15,2013-05-09 16:05:00,
2013-05-09 11:14:00,57.7,54.2,30.00,North,355,8.0,30.0,88,0.00,,,0.00,Wunderground v.1.15,2013-05-09 16:14:00,
2013-05-09 11:19:00,57.5,54.0,30.00,NNE,21,8.0,8.0,88,0.00,,,0.00,Wunderground v.1.15,2013-05-09 16:19:00,
2013-05-09 11:24:00,57.3,53.8,30.01,North,360,8.0,30.0,88,0.00,,,0.00,Wunderground v.1.15,2013-05-09 16:24:00,
2013-05-09 11:30:00,57.2,53.7,30.01,North,355,8.0,8.0,88,0.00,,,0.00,Wunderground v.1.15,2013-05-09 16:30:00,
2013-05-09 11:39:00,57.6,54.1,30.01,NNW,329,6.0,30.0,88,0.00,,,0.00,Wunderground v.1.15,2013-05-09 16:39:00,
2013-05-09 11:44:00,57.9,54.1,30.01,NNE,13,6.0,30.0,87,0.00,,,0.00,Wunderground v.1.15,2013-05-09 16:44:00,
2013-05-09 11:50:00,57.8,53.6,30.01,North,360,7.0,7.0,86,0.00,,,0.00,Wunderground v.1.15,2013-05-09 16:50:00,
2013-05-09 12:00:00,58.7,54.2,30.01,North,9,8.0,30.0,85,0.00,,,0.00,Wunderground v.1.15,2013-05-09 17:00:00,
2013-05-09 12:05:00,58.9,54.1,30.01,North,11,8.0,30.0,84,0.00,,,0.01,Wunderground v.1.15,2013-05-09 17:05:00,
2013-05-09 12:10:00,58.9,53.7,30.01,NNE,13,8.0,30.0,83,0.00,,,0.01,Wunderground v.1.15,2013-05-09 17:10:00,
2013-05-09 12:19:00,58.8,54.3,30.01,NNW,345,8.0,30.0,85,0.00,,,0.01,Wunderground v.1.15,2013-05-09 17:19:00,
2013-05-09 12:25:00,58.7,53.9,30.01,North,5,8.0,30.0,84,0.00,,,0.01,Wunderground v.1.15,2013-05-09 17:25:00,
2013-05-09 12:34:00,58.5,53.7,30.01,NNE,22,9.0,30.0,84,0.00,,,0.01,Wunderground v.1.15,2013-05-09 17:34:00,
2013-05-09 12:39:00,58.6,53.8,30.01,NNW,338,8.0,30.0,84,0.00,,,0.01,Wunderground v.1.15,2013-05-09 17:39:00,
2013-05-09 12:44:00,58.8,53.6,30.02,NNE,15,8.0,30.0,83,0.00,,,0.01,Wunderground v.1.15,2013-05-09 17:44:00,
2013-05-09 12:50:00,59.0,53.8,30.01,North,355,8.0,30.0,83,0.00,,,0.01,Wunderground v.1.15,2013-05-09 17:50:00,
2013-05-09 12:59:00,59.5,54.0,30.01,North,355,8.0,8.0,82,0.00,,,0.01,Wunderground v.1.15,2013-05-09 17:59:00,
2013-05-09 13:05:00,59.6,54.1,30.01,North,355,9.0,9.0,82,0.00,,,0.01,Wunderground v.1.15,2013-05-09 18:05:00,
2013-05-09 13:14:00,59.3,53.8,30.01,North,355,8.0,30.0,82,0.00,,,0.01,Wunderground v.1.15,2013-05-09 18:14:00,
2013-05-09 13:20:00,59.5,54.0,30.01,North,9,7.0,7.0,82,0.00,,,0.01,Wunderground v.1.15,2013-05-09 18:20:00,
2013-05-09 13:25:00,59.9,54.1,30.01,NNE,19,8.0,8.0,81,0.00,,,0.01,Wunderground v.1.15,2013-05-09 18:25:00,
2013-05-09 13:34:00,59.7,53.9,30.01,NNE,29,8.0,30.0,81,0.00,,,0.01,Wunderground v.1.15,2013-05-09 18:34:00,
2013-05-09 13:40:00,59.6,54.1,30.01,NNE,13,8.0,30.0,82,0.00,,,0.01,Wunderground v.1.15,2013-05-09 18:40:00,
2013-05-09 13:49:00,60.4,54.5,30.01,NNW,328,7.0,7.0,81,0.00,,,0.01,Wunderground v.1.15,2013-05-09 18:49:00,
2013-05-09 13:54:00,60.7,54.8,30.01,NNW,335,8.0,8.0,81,0.00,,,0.01,Wunderground v.1.15,2013-05-09 18:54:00,
2013-05-09 14:00:00,61.3,55.1,30.01,WNW,303,8.0,8.0,80,0.00,,,0.01,Wunderground v.1.15,2013-05-09 19:00:00,
2013-05-09 14:09:00,62.4,54.4,30.01,North,355,8.0,30.0,75,0.00,,,0.01,Wunderground v.1.15,2013-05-09 19:09:00,
2013-05-09 14:15:00,62.7,55.4,30.01,North,9,9.0,30.0,77,0.00,,,0.01,Wunderground v.1.15,2013-05-09 19:15:00,
2013-05-09 14:20:00,63.2,55.1,30.01,NW,325,9.0,30.0,75,0.00,,,0.01,Wunderground v.1.15,2013-05-09 19:20:00,
2013-05-09 14:29:00,62.1,54.8,30.01,NNE,19,9.0,30.0,77,0.00,,,0.01,Wunderground v.1.15,2013-05-09 19:29:00,
2013-05-09 14:34:00,61.8,54.5,30.01,NNW,334,10.0,30.0,77,0.00,,,0.01,Wunderground v.1.15,2013-05-09 19:34:00,
2013-05-09 14:40:00,62.2,55.3,30.00,NNW,339,9.0,30.0,78,0.00,,,0.01,Wunderground v.1.15,2013-05-09 19:40:00,
2013-05-09 14:49:00,63.3,55.6,30.00,North,5,10.0,30.0,76,0.00,,,0.01,Wunderground v.1.15,2013-05-09 19:49:00,
2013-05-09 14:54:00,63.1,55.4,30.00,North,355,10.0,30.0,76,0.00,,,0.01,Wunderground v.1.15,2013-05-09 19:54:00,
2013-05-09 14:59:00,62.7,55.4,30.00,NW,322,10.0,10.0,77,0.00,,,0.01,Wunderground v.1.15,2013-05-09 19:59:00,
2013-05-09 15:05:00,62.6,55.3,30.00,North,5,10.0,13.0,77,0.00,,,0.01,Wunderground v.1.15,2013-05-09 20:05:00,
2013-05-09 15:14:00,63.0,55.3,30.00,NNW,329,11.0,30.0,76,0.00,,,0.01,Wunderground v.1.15,2013-05-09 20:14:00,
2013-05-09 15:19:00,62.6,54.6,30.00,North,355,11.0,11.0,75,0.00,,,0.01,Wunderground v.1.15,2013-05-09 20:19:00,
2013-05-09 15:25:00,62.4,54.4,30.00,NW,325,11.0,30.0,75,0.00,,,0.01,Wunderground v.1.15,2013-05-09 20:25:00,
2013-05-09 15:34:00,60.7,54.5,30.00,NNW,338,12.0,30.0,80,0.00,,,0.01,Wunderground v.1.15,2013-05-09 20:34:00,
2013-05-09 15:40:00,60.4,54.5,30.00,NNE,20,11.0,11.0,81,0.00,,,0.01,Wunderground v.1.15,2013-05-09 20:40:00,
2013-05-09 15:49:00,59.6,54.1,30.00,NNW,346,11.0,30.0,82,0.00,,,0.01,Wunderground v.1.15,2013-05-09 20:49:00,
2013-05-09 15:54:00,58.4,53.6,30.01,North,355,12.0,30.0,84,0.00,,,0.01,Wunderground v.1.15,2013-05-09 20:54:00,
2013-05-09 16:00:00,57.8,53.3,30.01,NNW,342,13.0,13.0,85,0.00,,,0.01,Wunderground v.1.15,2013-05-09 21:00:00,
2013-05-09 16:09:00,57.8,53.3,30.01,NNW,337,12.0,12.0,85,0.00,,,0.01,Wunderground v.1.15,2013-05-09 21:09:00,
2013-05-09 16:14:00,57.5,53.0,30.01,North,349,12.0,30.0,85,0.00,,,0.01,Wunderground v.1.15,2013-05-09 21:14:00,
2013-05-09 16:20:00,57.1,53.0,30.01,North,360,12.0,12.0,86,0.00,,,0.01,Wunderground v.1.15,2013-05-09 21:20:00,
2013-05-09 16:25:00,57.1,53.0,30.01,NNW,341,12.0,13.0,86,0.00,,,0.01,Wunderground v.1.15,2013-05-09 21:25:00,
2013-05-09 16:34:00,57.2,52.7,30.01,NW,308,12.0,30.0,85,0.00,,,0.01,Wunderground v.1.15,2013-05-09 21:34:00,
2013-05-09 16:40:00,56.9,52.8,30.01,NNW,331,13.0,13.0,86,0.00,,,0.01,Wunderground v.1.15,2013-05-09 21:40:00,
2013-05-09 16:49:00,56.9,52.4,30.01,NW,323,13.0,30.0,85,0.00,,,0.01,Wunderground v.1.15,2013-05-09 21:49:00,
2013-05-09 16:54:00,56.9,52.8,30.01,North,350,13.0,30.0,86,0.00,,,0.01,Wunderground v.1.15,2013-05-09 21:54:00,
2013-05-09 16:59:00,57.1,53.0,30.01,NNW,342,12.0,12.0,86,0.00,,,0.01,Wunderground v.1.15,2013-05-09 21:59:00,
2013-05-09 17:05:00,57.0,52.5,30.01,NNW,333,11.0,30.0,85,0.00,,,0.01,Wunderground v.1.15,2013-05-09 22:05:00,
2013-05-09 17:14:00,57.0,52.5,30.02,NNW,346,10.0,30.0,85,0.00,,,0.01,Wunderground v.1.15,2013-05-09 22:14:00,
2013-05-09 17:19:00,56.9,52.4,30.02,NNW,331,11.0,11.0,85,0.00,,,0.01,Wunderground v.1.15,2013-05-09 22:19:00,
2013-05-09 17:25:00,56.9,52.4,30.02,North,350,12.0,12.0,85,0.00,,,0.01,Wunderground v.1.15,2013-05-09 22:25:00,
2013-05-09 17:34:00,56.7,52.2,30.02,NNW,329,10.0,30.0,85,0.00,,,0.01,Wunderground v.1.15,2013-05-09 22:34:00,
2013-05-09 17:39:00,56.6,52.1,30.02,North,5,10.0,30.0,85,0.00,,,0.01,Wunderground v.1.15,2013-05-09 22:39:00,
2013-05-09 17:45:00,56.6,52.5,30.03,North,5,11.0,30.0,86,0.00,,,0.01,Wunderground v.1.15,2013-05-09 22:45:00,
2013-05-09 17:55:00,56.3,52.5,30.03,North,355,9.0,12.0,87,0.00,,,0.01,Wunderground v.1.15,2013-05-09 22:55:00,
2013-05-09 18:04:00,56.2,52.7,30.03,NNW,342,10.0,30.0,88,0.00,,,0.01,Wunderground v.1.15,2013-05-09 23:04:00,
2013-05-09 18:09:00,56.0,52.5,30.03,North,350,9.0,30.0,88,0.00,,,0.01,Wunderground v.1.15,2013-05-09 23:09:00,
2013-05-09 18:15:00,55.8,52.3,30.03,NNW,341,9.0,30.0,88,0.00,,,0.01,Wunderground v.1.15,2013-05-09 23:15:00,
2013-05-09 18:24:00,55.5,52.3,30.04,NNW,331,8.0,30.0,89,0.00,,,0.01,Wunderground v.1.15,2013-05-09 23:24:00,
2013-05-09 18:29:00,55.5,52.3,30.04,NNE,26,9.0,9.0,89,0.00,,,0.01,Wunderground v.1.15,2013-05-09 23:29:00,
2013-05-09 18:35:00,55.6,52.7,30.03,NNW,342,8.0,30.0,90,0.00,,,0.01,Wunderground v.1.15,2013-05-09 23:35:00,
2013-05-09 18:44:00,55.7,52.5,30.04,NNE,13,8.0,30.0,89,0.00,,,0.01,Wunderground v.1.15,2013-05-09 23:44:00,
2013-05-09 18:49:00,55.8,52.6,30.03,NNW,346,8.0,8.0,89,0.00,,,0.01,Wunderground v.1.15,2013-05-09 23:49:00,
2013-05-09 18:54:00,55.9,52.7,30.03,North,355,9.0,9.0,89,0.00,,,0.01,Wunderground v.1.15,2013-05-09 23:54:00,
2013-05-09 19:00:00,56.0,52.8,30.03,NNW,342,9.0,9.0,89,0.00,,,0.01,Wunderground v.1.15,2013-05-10 00:00:00,
2013-05-09 19:09:00,55.8,52.6,30.03,NNW,338,8.0,8.0,89,0.00,,,0.01,Wunderground v.1.15,2013-05-10 00:09:00,
2013-05-09 19:15:00,55.8,52.6,30.04,North,355,7.0,14.0,89,0.00,,,0.01,Wunderground v.1.15,2013-05-10 00:15:00,
2013-05-09 19:24:00,55.8,52.9,30.03,NNE,17,7.0,30.0,90,0.00,,,0.01,Wunderground v.1.15,2013-05-10 00:24:00,
2013-05-09 19:29:00,55.6,52.7,30.04,North,355,7.0,30.0,90,0.00,,,0.01,Wunderground v.1.15,2013-05-10 00:29:00,
2013-05-09 19:34:00,55.4,52.8,30.04,North,349,7.0,30.0,91,0.00,,,0.01,Wunderground v.1.15,2013-05-10 00:34:00,
2013-05-09 19:40:00,55.2,52.9,30.04,North,349,7.0,30.0,92,0.00,,,0.01,Wunderground v.1.15,2013-05-10 00:40:00,
2013-05-09 19:49:00,54.8,52.8,30.04,North,350,6.0,30.0,93,0.00,,,0.01,Wunderground v.1.15,2013-05-10 00:49:00,
2013-05-09 19:55:00,54.8,53.1,30.04,North,5,6.0,30.0,94,0.00,,,0.01,Wunderground v.1.15,2013-05-10 00:55:00,
2013-05-09 20:00:00,54.8,53.1,30.04,North,349,6.0,30.0,94,0.00,,,0.01,Wunderground v.1.15,2013-05-10 01:00:00,
2013-05-09 20:09:00,54.8,53.1,30.05,North,355,5.0,30.0,94,0.00,,,0.01,Wunderground v.1.15,2013-05-10 01:09:00,
2013-05-09 20:15:00,54.9,53.2,30.05,NNW,338,5.0,30.0,94,0.00,,,0.01,Wunderground v.1.15,2013-05-10 01:15:00,
2013-05-09 20:24:00,55.0,53.0,30.05,North,5,5.0,30.0,93,0.00,,,0.01,Wunderground v.1.15,2013-05-10 01:24:00,
2013-05-09 20:30:00,55.0,53.0,30.05,North,355,5.0,30.0,93,0.00,,,0.01,Wunderground v.1.15,2013-05-10 01:30:00,
2013-05-09 20:39:00,55.1,53.1,30.05,North,355,5.0,30.0,93,0.00,,,0.01,Wunderground v.1.15,2013-05-10 01:39:00,
2013-05-09 20:44:00,55.1,53.1,30.06,North,360,5.0,30.0,93,0.00,,,0.01,Wunderground v.1.15,2013-05-10 01:44:00,
2013-05-09 20:50:00,55.1,53.1,30.06,North,355,5.0,30.0,93,0.00,,,0.01,Wunderground v.1.15,2013-05-10 01:50:00,
2013-05-09 20:59:00,55.2,52.9,30.06,NNW,335,5.0,30.0,92,0.00,,,0.01,Wunderground v.1.15,2013-05-10 01:59:00,
2013-05-09 21:05:00,55.2,52.9,30.06,NNW,335,5.0,30.0,92,0.00,,,0.01,Wunderground v.1.15,2013-05-10 02:05:00,
2013-05-09 21:10:00,55.2,52.9,30.06,NNW,336,5.0,5.0,92,0.00,,,0.01,Wunderground v.1.15,2013-05-10 02:10:00,
2013-05-09 21:19:00,55.2,52.9,30.06,NNW,338,4.0,30.0,92,0.00,,,0.01,Wunderground v.1.15,2013-05-10 02:19:00,
2013-05-09 21:24:00,55.2,52.9,30.06,NNW,341,5.0,30.0,92,0.00,,,0.01,Wunderground v.1.15,2013-05-10 02:24:00,
2013-05-09 21:30:00,55.2,52.9,30.06,NNW,336,5.0,30.0,92,0.00,,,0.01,Wunderground v.1.15,2013-05-10 02:30:00,
2013-05-09 21:39:00,55.2,52.9,30.07,NNW,332,5.0,30.0,92,0.00,,,0.01,Wunderground v.1.15,2013-05-10 02:39:00,
2013-05-09 21:44:00,55.1,52.8,30.07,NNW,344,5.0,30.0,92,0.00,,,0.01,Wunderground v.1.15,2013-05-10 02:44:00,
2013-05-09 21:49:00,55.2,52.9,30.07,NNW,336,5.0,30.0,92,0.00,,,0.01,Wunderground v.1.15,2013-05-10 02:49:00,
2013-05-09 21:55:00,55.2,52.9,30.07,NNW,348,6.0,30.0,92,0.00,,,0.01,Wunderground v.1.15,2013-05-10 02:55:00,
2013-05-09 22:00:00,55.3,53.0,30.07,NW,321,6.0,30.0,92,0.00,,,0.01,Wunderground v.1.15,2013-05-10 03:00:00,
2013-05-09 22:09:00,55.2,52.9,30.07,NW,304,6.0,30.0,92,0.00,,,0.01,Wunderground v.1.15,2013-05-10 03:09:00,
2013-05-09 22:14:00,55.3,52.7,30.07,NW,326,7.0,30.0,91,0.00,,,0.01,Wunderground v.1.15,2013-05-10 03:14:00,
2013-05-09 22:20:00,55.3,52.7,30.07,NNW,330,8.0,8.0,91,0.00,,,0.01,Wunderground v.1.15,2013-05-10 03:20:00,
2013-05-09 22:29:00,55.3,52.7,30.07,NNW,331,8.0,8.0,91,0.00,,,0.01,Wunderground v.1.15,2013-05-10 03:29:00,
2013-05-09 22:34:00,55.3,52.7,30.07,NNW,332,8.0,30.0,91,0.00,,,0.01,Wunderground v.1.15,2013-05-10 03:34:00,
2013-05-09 22:40:00,55.3,52.7,30.08,NNW,329,7.0,30.0,91,0.00,,,0.01,Wunderground v.1.15,2013-05-10 03:40:00,
2013-05-09 22:49:00,55.2,52.6,30.08,North,355,6.0,30.0,91,0.00,,,0.01,Wunderground v.1.15,2013-05-10 03:49:00,
2013-05-09 22:55:00,55.1,52.5,30.08,NNW,346,5.0,30.0,91,0.00,,,0.01,Wunderground v.1.15,2013-05-10 03:55:00,
2013-05-09 23:04:00,55.1,52.5,30.07,NNW,342,5.0,30.0,91,0.00,,,0.01,Wunderground v.1.15,2013-05-10 04:04:00,
2013-05-09 23:09:00,55.0,52.4,30.07,NNW,341,6.0,30.0,91,0.00,,,0.01,Wunderground v.1.15,2013-05-10 04:09:00,
2013-05-09 23:14:00,54.9,52.3,30.07,NNW,347,6.0,30.0,91,0.00,,,0.01,Wunderground v.1.15,2013-05-10 04:14:00,
2013-05-09 23:20:00,54.9,52.3,30.08,NNW,344,6.0,6.0,91,0.00,,,0.01,Wunderground v.1.15,2013-05-10 04:20:00,
2013-05-09 23:24:00,54.9,52.3,30.07,NNW,348,6.0,7.0,91,0.00,,,0.01,Wunderground v.1.15,2013-05-10 04:24:00,
2013-05-09 23:29:00,54.9,52.3,30.08,North,355,5.0,5.0,91,0.00,,,0.01,Wunderground v.1.15,2013-05-10 04:29:00,
2013-05-09 23:35:00,54.8,52.2,30.08,North,355,4.0,7.0,91,0.00,,,0.01,Wunderground v.1.15,2013-05-10 04:35:00,
2013-05-09 23:39:00,54.5,51.9,30.08,NNW,328,5.0,30.0,91,0.00,,,0.01,Wunderground v.1.15,2013-05-10 04:39:00,
2013-05-09 23:44:00,54.1,51.5,30.07,NNW,334,5.0,30.0,91,0.00,,,0.01,Wunderground v.1.15,2013-05-10 04:44:00,
2013-05-09 23:49:00,53.7,51.1,30.07,NNW,336,6.0,30.0,91,0.00,,,0.01,Wunderground v.1.15,2013-05-10 04:49:00,
2013-05-09 23:55:00,53.3,51.0,30.08,NW,320,6.0,30.0,92,0.00,,,0.01,Wunderground v.1.15,2013-05-10 04:55:00,
2013-05-09 23:59:00,53.0,50.7,30.07,NNW,334,6.0,6.0,92,0.00,,,0.01,Wunderground v.1.15,2013-05-10 04:59:00,